Time;durP1;ratioP1;P1;durP2;ratioP2;P2;SDS_P1;SDS_P2;PMS_P1;PMS_P2;Temp;Humidity;BMP_temperature;BMP_pressure;BME280_temperature;BME280_humidity;BME280_pressure;Samples;Min_cycle;Max_cycle;Signal;HPM_P1;HPM_P2
2021/11/23 00:00:23;;;;;;;6.57;2.60;;;8.50;99.10;;;;;;5033796;28;20041;-49
2021/11/23 00:02:49;;;;;;;6.47;2.78;;;8.50;99.00;;;;;;5033617;28;20100;-49
2021/11/23 00:05:15;;;;;;;3.78;2.30;;;8.40;98.70;;;;;;5032951;28;20112;-49
2021/11/23 00:07:41;;;;;;;5.00;2.63;;;8.40;98.90;;;;;;5033482;28;20116;-49
2021/11/23 00:10:08;;;;;;;3.92;2.78;;;8.50;99.00;;;;;;5033440;28;20133;-49
2021/11/23 00:12:34;;;;;;;4.72;2.72;;;8.40;98.80;;;;;;5032457;28;20037;-49
2021/11/23 00:15:00;;;;;;;4.18;2.50;;;8.50;98.90;;;;;;5033025;28;20022;-49
2021/11/23 00:17:26;;;;;;;3.20;2.22;;;8.50;99.10;;;;;;5033171;28;20032;-49
2021/11/23 00:19:51;;;;;;;7.30;2.75;;;8.50;99.10;;;;;;5033689;28;20033;-49
2021/11/23 00:22:17;;;;;;;4.50;2.35;;;8.50;99.10;;;;;;5033411;28;20028;-49
2021/11/23 00:24:43;;;;;;;2.65;1.88;;;8.40;99.10;;;;;;5032901;28;20025;-49
2021/11/23 00:27:09;;;;;;;3.90;2.33;;;8.40;99.10;;;;;;5023276;28;20452;-49
2021/11/23 00:29:35;;;;;;;5.30;2.97;;;8.40;99.00;;;;;;5013975;28;20022;-49
2021/11/23 00:32:02;;;;;;;4.55;2.55;;;8.40;99.00;;;;;;5013378;28;20364;-49
2021/11/23 00:34:28;;;;;;;6.20;2.53;;;8.40;99.10;;;;;;5013527;28;20022;-49
2021/11/23 00:36:54;;;;;;;3.45;2.53;;;8.50;99.30;;;;;;5012387;28;20038;-49
2021/11/23 00:39:20;;;;;;;5.53;2.70;;;8.40;98.90;;;;;;5012954;28;20116;-49
2021/11/23 00:41:48;;;;;;;6.18;2.85;;;8.40;98.90;;;;;;5016967;28;20083;-49
2021/11/23 00:44:21;;;;;;;6.63;3.20;;;8.40;99.00;;;;;;5033001;28;20025;-49
2021/11/23 00:46:48;;;;;;;5.18;3.15;;;8.40;98.90;;;;;;5031550;28;20492;-49
2021/11/23 00:49:15;;;;;;;2.83;2.25;;;8.40;99.00;;;;;;5032686;28;20021;-49
2021/11/23 00:51:41;;;;;;;6.53;2.70;;;8.40;99.00;;;;;;5032977;28;20573;-49
2021/11/23 00:54:06;;;;;;;4.90;2.60;;;8.40;98.90;;;;;;5031475;28;20053;-49
2021/11/23 00:56:32;;;;;;;4.05;2.67;;;8.40;99.00;;;;;;5030051;28;20017;-49
2021/11/23 00:58:58;;;;;;;3.10;2.03;;;8.40;99.10;;;;;;5011701;28;20041;-49
2021/11/23 01:01:24;;;;;;;3.97;2.85;;;8.40;99.00;;;;;;5013085;28;20416;-49
2021/11/23 01:03:50;;;;;;;3.42;2.42;;;8.40;99.00;;;;;;5013401;28;20029;-49
2021/11/23 01:06:15;;;;;;;6.10;2.80;;;8.40;98.90;;;;;;5011811;28;20018;-49
2021/11/23 01:08:41;;;;;;;3.88;2.47;;;8.30;98.90;;;;;;5013351;28;20056;-49
2021/11/23 01:11:08;;;;;;;7.47;2.72;;;8.40;98.90;;;;;;5012986;28;20108;-49
2021/11/23 01:13:34;;;;;;;4.35;2.17;;;8.40;98.90;;;;;;5029997;28;20033;-49
2021/11/23 01:16:00;;;;;;;5.40;2.50;;;8.30;99.10;;;;;;5032340;28;20028;-49
2021/11/23 01:18:26;;;;;;;5.65;2.63;;;8.40;99.30;;;;;;5032834;28;20057;-49
2021/11/23 01:20:52;;;;;;;5.72;2.55;;;8.30;98.90;;;;;;5032176;28;20093;-49
2021/11/23 01:23:17;;;;;;;3.55;2.80;;;8.30;99.10;;;;;;5032394;28;20140;-49
2021/11/23 01:25:43;;;;;;;2.67;2.10;;;8.30;98.80;;;;;;5031768;28;20080;-49
2021/11/23 01:28:09;;;;;;;3.67;2.70;;;8.30;98.90;;;;;;5018755;28;20033;-49
2021/11/23 01:30:35;;;;;;;3.58;2.30;;;8.30;98.80;;;;;;5012506;28;20030;-49
2021/11/23 01:33:01;;;;;;;3.15;2.20;;;8.30;98.90;;;;;;5012443;28;20022;-49
2021/11/23 01:35:26;;;;;;;3.85;2.50;;;8.30;98.70;;;;;;5011417;28;20034;-49
2021/11/23 01:37:52;;;;;;;7.43;2.58;;;8.30;98.90;;;;;;5012412;28;20101;-49
2021/11/23 01:40:18;;;;;;;3.45;2.55;;;8.30;98.40;;;;;;5012845;28;20029;-49
2021/11/23 01:42:45;;;;;;;6.22;2.70;;;8.30;98.50;;;;;;5019904;28;20033;-49
2021/11/23 01:45:12;;;;;;;3.78;2.10;;;8.30;98.40;;;;;;5031187;28;20026;-49
2021/11/23 01:47:38;;;;;;;4.05;2.72;;;8.20;98.40;;;;;;5032395;28;20041;-49
2021/11/23 01:50:06;;;;;;;5.15;2.40;;;8.20;98.70;;;;;;5032239;28;20033;-49
2021/11/23 01:52:32;;;;;;;7.50;2.60;;;8.20;98.50;;;;;;5031805;28;20041;-49
2021/11/23 01:54:58;;;;;;;4.03;2.78;;;8.30;98.40;;;;;;5031052;28;20021;-49
2021/11/23 01:57:24;;;;;;;4.28;2.50;;;8.30;98.70;;;;;;5026696;28;20125;-49
2021/11/23 01:59:50;;;;;;;2.72;2.00;;;8.20;98.50;;;;;;5011145;28;20105;-49
2021/11/23 02:02:16;;;;;;;7.30;2.58;;;8.20;98.50;;;;;;5012075;28;20037;-49
2021/11/23 02:04:42;;;;;;;2.45;2.08;;;8.20;98.30;;;;;;5011661;28;20033;-49
2021/11/23 02:07:08;;;;;;;4.05;2.63;;;8.20;98.40;;;;;;5011128;28;20068;-50
2021/11/23 02:09:35;;;;;;;2.65;2.28;;;8.20;98.50;;;;;;5012190;28;20022;-49
2021/11/23 02:12:01;;;;;;;5.70;2.72;;;8.20;98.40;;;;;;5011869;28;20045;-49
2021/11/23 02:14:30;;;;;;;3.22;2.72;;;8.20;98.20;;;;;;5011660;28;20052;-49
2021/11/23 02:16:56;;;;;;;6.20;2.80;;;8.20;98.40;;;;;;5010679;28;20485;-49
2021/11/23 02:19:22;;;;;;;4.47;2.38;;;8.20;98.40;;;;;;5011569;28;20033;-49
2021/11/23 02:21:48;;;;;;;4.13;2.63;;;8.20;98.00;;;;;;5011813;28;20026;-49
2021/11/23 02:24:14;;;;;;;3.85;2.75;;;8.20;98.00;;;;;;5011760;28;20221;-49
2021/11/23 02:26:39;;;;;;;6.72;2.70;;;8.20;97.90;;;;;;5010608;28;20030;-49
2021/11/23 02:29:05;;;;;;;4.10;2.33;;;8.10;98.10;;;;;;5026960;28;20032;-49
2021/11/23 02:31:31;;;;;;;5.32;2.80;;;8.20;98.00;;;;;;5031254;28;20036;-49
2021/11/23 02:33:56;;;;;;;6.15;2.28;;;8.10;97.70;;;;;;5031650;28;20353;-49
2021/11/23 02:36:22;;;;;;;1.90;1.70;;;8.10;97.60;;;;;;5030555;28;20025;-49
2021/11/23 02:38:49;;;;;;;5.47;2.72;;;8.20;98.30;;;;;;5031370;28;20025;-49
2021/11/23 02:41:16;;;;;;;3.95;2.63;;;8.10;97.80;;;;;;5030925;28;20101;-49
2021/11/23 02:43:42;;;;;;;3.95;1.90;;;8.10;97.70;;;;;;5022252;28;20113;-49
2021/11/23 02:46:09;;;;;;;8.55;2.70;;;8.10;98.00;;;;;;5030144;28;20431;-49
2021/11/23 02:48:36;;;;;;;3.90;2.55;;;8.10;97.80;;;;;;5031174;28;20433;-49
2021/11/23 02:51:15;;;;;;;3.10;2.13;;;8.10;98.00;;;;;;5031225;28;20052;-49
2021/11/23 02:53:42;;;;;;;2.63;2.10;;;8.10;97.80;;;;;;5030645;28;20491;-49
2021/11/23 02:56:08;;;;;;;4.93;2.50;;;8.10;97.90;;;;;;5029944;28;20041;-49
2021/11/23 02:58:33;;;;;;;4.00;2.28;;;8.10;97.50;;;;;;5020456;28;20026;-49
2021/11/23 03:01:02;;;;;;;2.78;2.40;;;8.10;98.00;;;;;;5010659;28;20057;-49
2021/11/23 03:03:28;;;;;;;5.50;2.67;;;8.10;97.70;;;;;;5011283;28;20026;-49
2021/11/23 03:05:55;;;;;;;3.90;2.70;;;8.00;97.50;;;;;;5010381;28;20022;-49
2021/11/23 03:08:21;;;;;;;4.43;2.13;;;8.10;97.40;;;;;;5011371;28;20274;-49
2021/11/23 03:10:47;;;;;;;1.95;1.70;;;8.10;97.90;;;;;;5014607;28;20390;-49
2021/11/23 03:13:13;;;;;;;4.78;2.20;;;8.00;97.60;;;;;;5022624;28;20375;-49
2021/11/23 03:15:39;;;;;;;3.95;2.35;;;8.10;97.60;;;;;;5036161;28;20030;-50
2021/11/23 03:18:06;;;;;;;2.95;2.03;;;8.10;97.70;;;;;;5037479;28;20034;-49
2021/11/23 03:20:32;;;;;;;3.92;2.60;;;8.10;98.10;;;;;;5037718;28;20097;-49
2021/11/23 03:22:58;;;;;;;4.82;2.35;;;8.10;97.60;;;;;;5037387;28;20052;-49
2021/11/23 03:25:25;;;;;;;4.63;2.22;;;8.00;97.70;;;;;;5036737;28;20468;-49
2021/11/23 03:27:51;;;;;;;4.57;2.17;;;8.00;97.70;;;;;;5035566;28;20034;-49
2021/11/23 03:30:23;;;;;;;4.55;2.55;;;8.10;97.90;;;;;;5017452;28;20037;-49
2021/11/23 03:32:50;;;;;;;3.90;2.25;;;8.10;98.10;;;;;;5017508;28;20065;-49
2021/11/23 03:35:15;;;;;;;3.40;2.60;;;8.10;98.00;;;;;;5016830;28;20058;-49
2021/11/23 03:37:42;;;;;;;3.60;2.60;;;8.10;98.00;;;;;;5011518;28;20054;-49
2021/11/23 03:40:09;;;;;;;4.22;2.63;;;8.10;98.10;;;;;;5037032;28;20078;-49
2021/11/23 03:42:35;;;;;;;2.03;1.73;;;8.10;97.90;;;;;;5036669;28;20033;-49
2021/11/23 03:45:00;;;;;;;4.13;2.05;;;8.10;98.20;;;;;;5035499;28;20041;-49
2021/11/23 03:47:31;;;;;;;4.75;2.17;;;8.10;98.20;;;;;;5036569;28;20037;-49
2021/11/23 03:49:58;;;;;;;2.90;2.33;;;8.10;98.20;;;;;;5037078;28;20614;-49
2021/11/23 03:52:24;;;;;;;3.65;2.33;;;8.00;97.90;;;;;;5036945;28;20028;-49
2021/11/23 03:54:51;;;;;;;4.88;2.33;;;8.10;98.40;;;;;;5036724;28;20021;-49
2021/11/23 03:57:17;;;;;;;3.78;2.58;;;8.10;98.20;;;;;;5036766;28;20032;-49
2021/11/23 03:59:47;;;;;;;4.00;2.55;;;8.10;98.20;;;;;;5021623;28;20034;-49
2021/11/23 04:02:13;;;;;;;4.88;2.95;;;8.00;98.20;;;;;;5017055;28;20080;-49
2021/11/23 04:04:39;;;;;;;3.58;2.35;;;8.00;98.20;;;;;;5017234;28;20388;-49
2021/11/23 04:07:04;;;;;;;3.40;2.08;;;8.00;98.00;;;;;;5016374;28;20441;-49
2021/11/23 04:09:30;;;;;;;2.80;2.25;;;8.00;98.30;;;;;;5017293;28;20429;-49
2021/11/23 04:11:55;;;;;;;3.45;2.40;;;8.00;98.10;;;;;;5016944;28;20044;-49
2021/11/23 04:14:21;;;;;;;4.78;2.58;;;8.00;98.00;;;;;;5026454;28;20364;-49
2021/11/23 04:16:47;;;;;;;5.30;2.65;;;8.00;98.30;;;;;;5034597;28;20064;-49
2021/11/23 04:19:13;;;;;;;3.50;2.53;;;8.00;98.10;;;;;;5037014;28;20049;-49
2021/11/23 04:21:38;;;;;;;3.63;1.90;;;8.00;98.00;;;;;;5035257;28;20026;-49
2021/11/23 04:24:04;;;;;;;3.38;2.22;;;8.00;98.40;;;;;;5032832;28;20036;-49
2021/11/23 04:26:30;;;;;;;5.18;2.83;;;8.00;98.10;;;;;;5032837;28;20072;-49
2021/11/23 04:28:55;;;;;;;2.35;2.00;;;8.00;98.20;;;;;;5026996;28;20037;-49
2021/11/23 04:31:21;;;;;;;4.75;2.22;;;8.00;98.20;;;;;;5014035;28;20053;-49
2021/11/23 04:33:46;;;;;;;5.18;2.25;;;8.00;98.30;;;;;;5013706;28;20037;-49
2021/11/23 04:36:12;;;;;;;5.10;2.00;;;8.00;98.50;;;;;;5012748;28;20029;-49
2021/11/23 04:38:38;;;;;;;5.25;2.47;;;8.00;98.00;;;;;;5013099;28;20076;-49
2021/11/23 04:41:03;;;;;;;4.47;1.90;;;8.00;98.10;;;;;;5013489;28;20461;-49
2021/11/23 04:43:29;;;;;;;2.50;2.05;;;8.00;98.30;;;;;;5013462;28;20022;-49
2021/11/23 04:45:56;;;;;;;3.38;2.50;;;8.00;98.30;;;;;;5012417;28;20353;-49
2021/11/23 04:48:22;;;;;;;3.38;2.40;;;8.00;98.30;;;;;;5013612;28;20045;-49
2021/11/23 04:50:47;;;;;;;4.35;2.45;;;8.00;98.20;;;;;;5013503;28;20022;-49
2021/11/23 04:53:13;;;;;;;3.33;2.33;;;8.00;98.50;;;;;;5012993;28;20034;-49
2021/11/23 04:55:38;;;;;;;2.72;1.85;;;8.00;98.40;;;;;;5012746;28;20093;-49
2021/11/23 04:58:04;;;;;;;2.83;2.15;;;8.00;98.20;;;;;;5012834;28;20037;-49
2021/11/23 05:00:30;;;;;;;3.90;2.17;;;8.00;98.60;;;;;;5028866;28;20103;-49
2021/11/23 05:02:56;;;;;;;4.10;2.42;;;8.00;98.60;;;;;;5032810;28;20392;-49
2021/11/23 05:05:21;;;;;;;2.53;2.00;;;8.00;98.60;;;;;;5031874;28;20022;-48
2021/11/23 05:07:47;;;;;;;4.72;2.65;;;8.00;98.70;;;;;;5032675;28;20064;-49
2021/11/23 05:10:14;;;;;;;2.97;2.10;;;8.00;98.60;;;;;;5032638;28;20337;-49
2021/11/23 05:12:41;;;;;;;2.75;2.17;;;8.00;98.60;;;;;;5032849;28;20029;-49
2021/11/23 05:15:07;;;;;;;4.70;2.47;;;8.00;98.40;;;;;;5030316;28;20526;-50
2021/11/23 05:17:33;;;;;;;4.13;2.30;;;8.00;98.60;;;;;;5032617;28;20421;-49
2021/11/23 05:19:58;;;;;;;3.53;2.15;;;8.00;98.40;;;;;;5032331;28;20064;-49
2021/11/23 05:22:24;;;;;;;3.33;2.55;;;7.90;98.30;;;;;;5032322;28;20027;-49
2021/11/23 05:24:50;;;;;;;4.03;2.70;;;8.00;98.40;;;;;;5032249;28;20244;-49
2021/11/23 05:27:15;;;;;;;5.40;2.58;;;7.90;98.00;;;;;;5028285;28;20037;-49
2021/11/23 05:29:41;;;;;;;4.53;2.40;;;7.90;98.20;;;;;;5031346;28;20037;-49
2021/11/23 05:32:07;;;;;;;6.95;3.08;;;7.90;98.20;;;;;;5032437;28;20045;-49
2021/11/23 05:34:33;;;;;;;6.72;2.92;;;7.90;98.40;;;;;;5031973;28;20504;-49
2021/11/23 05:36:58;;;;;;;6.13;3.40;;;7.90;98.30;;;;;;5031433;28;20065;-49
2021/11/23 05:39:24;;;;;;;5.45;2.38;;;8.00;98.30;;;;;;5032023;28;20062;-49
2021/11/23 05:41:50;;;;;;;4.00;2.50;;;8.00;98.40;;;;;;5032527;28;20464;-49
2021/11/23 05:44:16;;;;;;;3.75;2.40;;;7.90;98.30;;;;;;5028324;28;20464;-49
2021/11/23 05:46:42;;;;;;;4.70;2.50;;;7.90;98.10;;;;;;5011670;28;20544;-49
2021/11/23 05:49:08;;;;;;;5.13;2.60;;;7.90;98.30;;;;;;5012508;28;20465;-49
2021/11/23 05:51:33;;;;;;;3.92;2.97;;;8.00;98.40;;;;;;5012189;28;20161;-49
2021/11/23 05:53:59;;;;;;;7.45;2.30;;;8.00;98.50;;;;;;5012059;28;20630;-49
2021/11/23 05:56:25;;;;;;;4.05;2.47;;;8.00;98.50;;;;;;5011435;28;20025;-49
2021/11/23 05:58:50;;;;;;;6.10;2.70;;;8.00;98.50;;;;;;5011523;28;20045;-49
2021/11/23 06:01:16;;;;;;;4.53;2.30;;;7.90;98.30;;;;;;5029153;28;20040;-49
2021/11/23 06:03:42;;;;;;;2.75;2.10;;;7.90;98.40;;;;;;5031832;28;20030;-50
2021/11/23 06:06:08;;;;;;;7.05;2.40;;;7.90;98.50;;;;;;5030536;28;20025;-48
2021/11/23 06:08:33;;;;;;;3.35;2.20;;;7.90;98.20;;;;;;5030778;28;20448;-49
2021/11/23 06:10:59;;;;;;;7.35;3.10;;;7.90;97.70;;;;;;5031154;28;20030;-49
2021/11/23 06:13:25;;;;;;;6.18;2.67;;;7.90;97.80;;;;;;5031234;28;20040;-49
2021/11/23 06:15:50;;;;;;;6.05;2.88;;;7.90;97.70;;;;;;5028901;28;20025;-49
2021/11/23 06:18:16;;;;;;;5.88;2.75;;;7.90;97.50;;;;;;5031715;28;20115;-51
2021/11/23 06:20:46;;;;;;;3.58;2.33;;;7.90;97.30;;;;;;5031283;28;20395;-49
2021/11/23 06:23:14;;;;;;;7.13;2.77;;;7.90;97.20;;;;;;5031455;28;20029;-49
2021/11/23 06:25:42;;;;;;;4.55;2.53;;;7.90;97.10;;;;;;5030408;28;20326;-49
2021/11/23 06:28:08;;;;;;;5.68;2.75;;;7.90;97.10;;;;;;5031452;28;20048;-50
2021/11/23 06:30:34;;;;;;;6.13;3.03;;;7.90;97.00;;;;;;5020806;28;20258;-49
2021/11/23 06:32:59;;;;;;;4.00;2.72;;;7.90;97.10;;;;;;5011918;28;20285;-49
2021/11/23 06:35:25;;;;;;;4.85;2.38;;;7.90;97.10;;;;;;5010350;28;20338;-50
2021/11/23 06:37:51;;;;;;;4.90;2.78;;;7.90;97.20;;;;;;5011681;28;20054;-49
2021/11/23 06:40:16;;;;;;;3.42;2.55;;;7.90;97.20;;;;;;5011074;28;20044;-49
2021/11/23 06:42:42;;;;;;;3.70;2.40;;;7.90;97.30;;;;;;5011484;28;20033;-49
2021/11/23 06:45:08;;;;;;;5.97;2.70;;;7.90;97.30;;;;;;5014064;28;20033;-49
2021/11/23 06:47:34;;;;;;;4.78;2.90;;;7.90;97.40;;;;;;5030885;28;20046;-49
2021/11/23 06:50:00;;;;;;;5.35;2.95;;;7.90;97.40;;;;;;5030899;28;20025;-49
2021/11/23 06:52:26;;;;;;;5.05;3.00;;;7.90;97.50;;;;;;5031228;28;20113;-49
2021/11/23 06:54:52;;;;;;;4.88;2.40;;;7.90;97.50;;;;;;5030895;28;20595;-49
2021/11/23 06:57:18;;;;;;;5.72;2.88;;;7.90;97.60;;;;;;5030388;28;20025;-49
2021/11/23 06:59:47;;;;;;;8.73;3.00;;;7.90;97.40;;;;;;5028842;28;20026;-50
2021/11/23 07:02:12;;;;;;;6.63;3.17;;;7.90;97.60;;;;;;5010889;28;20116;-50
2021/11/23 07:04:38;;;;;;;10.18;3.85;;;7.90;97.50;;;;;;5011294;28;20165;-49
2021/11/23 07:07:04;;;;;;;6.97;3.20;;;7.90;97.60;;;;;;5010467;28;20461;-50
2021/11/23 07:09:30;;;;;;;3.40;2.42;;;7.90;97.60;;;;;;5011190;28;20025;-50
2021/11/23 07:11:56;;;;;;;5.97;2.45;;;7.90;97.60;;;;;;5011210;28;20026;-49
2021/11/23 07:14:21;;;;;;;4.88;2.88;;;7.90;97.80;;;;;;5011179;28;20307;-49
2021/11/23 07:16:47;;;;;;;5.15;2.60;;;7.90;97.80;;;;;;5025843;28;20021;-50
2021/11/23 07:19:14;;;;;;;5.68;2.60;;;7.90;97.80;;;;;;5030499;28;20172;-50
2021/11/23 07:21:40;;;;;;;4.00;2.80;;;7.90;97.80;;;;;;5030848;28;20037;-49
2021/11/23 07:24:07;;;;;;;4.95;2.70;;;7.90;97.60;;;;;;5030697;28;20030;-49
2021/11/23 07:26:33;;;;;;;4.35;3.00;;;7.90;97.80;;;;;;5029882;28;20313;-49
2021/11/23 07:29:00;;;;;;;5.38;3.25;;;7.90;97.60;;;;;;5030974;28;20041;-49
2021/11/23 07:31:26;;;;;;;4.20;2.80;;;7.90;97.60;;;;;;5016992;28;20038;-49
2021/11/23 07:33:52;;;;;;;3.90;2.83;;;7.90;97.70;;;;;;5010726;28;20055;-50
2021/11/23 07:36:19;;;;;;;2.92;2.35;;;7.90;97.90;;;;;;5009776;28;20460;-50
2021/11/23 07:38:50;;;;;;;2.90;2.40;;;7.90;97.80;;;;;;5011021;28;20453;-49
2021/11/23 07:41:16;;;;;;;4.32;2.70;;;7.90;97.80;;;;;;5010517;28;20476;-50
2021/11/23 07:43:41;;;;;;;3.20;2.40;;;7.90;97.40;;;;;;5011428;28;20022;-49
2021/11/23 07:46:07;;;;;;;4.38;3.17;;;7.90;98.10;;;;;;5017901;28;20052;-49
2021/11/23 07:48:33;;;;;;;6.32;3.08;;;7.90;97.80;;;;;;5030567;28;20381;-49
2021/11/23 07:50:59;;;;;;;5.15;3.17;;;7.90;97.70;;;;;;5030774;28;20053;-49
2021/11/23 07:53:25;;;;;;;5.80;2.78;;;7.90;97.60;;;;;;5030296;28;20091;-49
2021/11/23 07:55:51;;;;;;;4.72;2.75;;;7.90;98.00;;;;;;5027923;28;20038;-49
2021/11/23 07:58:17;;;;;;;6.13;3.63;;;7.90;97.80;;;;;;5032592;28;20120;-50
2021/11/23 08:00:43;;;;;;;4.22;2.55;;;7.90;97.60;;;;;;5033223;28;20115;-49
2021/11/23 08:03:10;;;;;;;5.13;2.58;;;7.90;97.80;;;;;;5033923;28;20049;-50
2021/11/23 08:05:37;;;;;;;4.60;2.95;;;7.90;97.60;;;;;;5033235;28;20056;-49
2021/11/23 08:08:04;;;;;;;4.60;3.10;;;7.90;97.50;;;;;;5034225;28;20034;-49
2021/11/23 08:10:30;;;;;;;5.38;3.10;;;7.90;97.30;;;;;;5033791;28;20022;-49
2021/11/23 08:12:55;;;;;;;9.10;2.70;;;7.90;97.00;;;;;;5034059;28;20029;-49
2021/11/23 08:15:21;;;;;;;8.68;2.95;;;7.90;96.80;;;;;;5031955;28;20026;-50
2021/11/23 08:17:48;;;;;;;12.70;3.10;;;7.90;96.80;;;;;;5013858;28;20278;-49
2021/11/23 08:20:14;;;;;;;4.40;2.78;;;7.90;96.90;;;;;;5013769;28;20472;-49
2021/11/23 08:22:40;;;;;;;2.70;2.25;;;7.90;96.70;;;;;;5013864;28;20046;-49
2021/11/23 08:25:07;;;;;;;7.75;2.80;;;7.90;96.70;;;;;;5013263;28;20119;-49
2021/11/23 08:27:33;;;;;;;3.47;2.90;;;7.90;97.10;;;;;;5013689;28;20033;-49
2021/11/23 08:30:00;;;;;;;5.10;3.38;;;7.90;96.70;;;;;;5013528;28;20033;-49
2021/11/23 08:32:26;;;;;;;4.75;3.15;;;7.90;96.80;;;;;;5029260;28;20398;-49
2021/11/23 08:34:51;;;;;;;3.78;2.80;;;7.80;96.60;;;;;;5033291;28;20033;-50
2021/11/23 08:37:17;;;;;;;5.35;3.20;;;7.80;96.70;;;;;;5032622;28;20025;-50
2021/11/23 08:39:43;;;;;;;4.70;3.50;;;7.90;96.80;;;;;;5032776;28;20021;-49
2021/11/23 08:42:08;;;;;;;7.28;3.65;;;7.90;96.50;;;;;;5033040;28;20112;-49
2021/11/23 08:44:35;;;;;;;6.35;3.47;;;7.90;96.70;;;;;;5033316;28;20092;-50
2021/11/23 08:47:01;;;;;;;6.22;3.20;;;7.90;96.80;;;;;;5019108;28;20046;-50
2021/11/23 08:49:27;;;;;;;5.45;3.33;;;8.00;96.80;;;;;;5013499;28;20105;-49
2021/11/23 08:51:53;;;;;;;4.25;3.00;;;7.90;96.70;;;;;;5013726;28;20080;-49
2021/11/23 08:54:20;;;;;;;9.73;3.30;;;8.00;96.90;;;;;;5013283;28;20461;-49
2021/11/23 08:56:56;;;;;;;5.70;3.38;;;8.00;96.70;;;;;;5012124;28;20377;-50
2021/11/23 08:59:21;;;;;;;4.30;2.92;;;8.00;97.10;;;;;;5013269;28;20048;-50
2021/11/23 09:01:48;;;;;;;6.53;3.20;;;8.00;97.00;;;;;;5021621;28;20559;-50
2021/11/23 09:04:14;;;;;;;5.10;3.00;;;8.00;97.10;;;;;;5032786;28;20190;-49
2021/11/23 09:06:41;;;;;;;3.47;2.80;;;8.00;97.00;;;;;;5031950;28;20053;-49
2021/11/23 09:09:08;;;;;;;4.03;2.95;;;8.10;97.10;;;;;;5032074;28;20265;-50
2021/11/23 09:11:38;;;;;;;4.90;3.15;;;8.10;97.30;;;;;;5032799;28;20021;-49
2021/11/23 09:14:05;;;;;;;3.20;2.70;;;8.10;97.40;;;;;;5032924;28;20021;-50
2021/11/23 09:16:34;;;;;;;4.53;2.92;;;8.10;97.40;;;;;;5030622;28;20038;-50
2021/11/23 09:19:01;;;;;;;6.07;3.08;;;8.10;97.50;;;;;;5032683;28;20021;-49
2021/11/23 09:21:28;;;;;;;4.70;3.40;;;8.20;97.70;;;;;;5032833;28;20083;-50
2021/11/23 09:23:54;;;;;;;7.15;3.45;;;8.20;97.50;;;;;;5032642;28;20060;-50
2021/11/23 09:26:20;;;;;;;5.10;3.22;;;8.20;97.40;;;;;;5031412;28;20025;-49
2021/11/23 09:28:46;;;;;;;3.40;2.67;;;8.20;97.50;;;;;;5032541;28;20040;-50
2021/11/23 09:31:12;;;;;;;4.57;2.70;;;8.20;97.90;;;;;;5029248;28;20026;-49
2021/11/23 09:33:37;;;;;;;8.82;3.60;;;8.30;98.60;;;;;;5012501;28;20504;-50
2021/11/23 09:36:03;;;;;;;4.80;3.28;;;8.30;98.80;;;;;;5011658;28;20453;-50
2021/11/23 09:38:29;;;;;;;4.13;3.08;;;8.30;99.00;;;;;;5012454;28;20029;-50
2021/11/23 09:40:54;;;;;;;8.43;2.97;;;8.30;99.20;;;;;;5011912;28;20124;-50
2021/11/23 09:43:20;;;;;;;7.03;3.38;;;8.30;99.00;;;;;;5012408;28;20018;-50
2021/11/23 09:45:46;;;;;;;6.55;3.55;;;8.30;98.80;;;;;;5011987;28;20477;-50
2021/11/23 09:48:12;;;;;;;3.83;3.00;;;8.30;98.80;;;;;;5028547;28;20596;-50
2021/11/23 09:50:40;;;;;;;5.35;3.67;;;8.30;98.50;;;;;;5031908;28;20036;-50
2021/11/23 09:53:08;;;;;;;5.32;3.22;;;8.30;99.20;;;;;;5031567;28;20033;-50
2021/11/23 09:55:35;;;;;;;8.68;3.63;;;8.40;99.00;;;;;;5031200;28;20025;-49
2021/11/23 09:58:00;;;;;;;3.53;2.92;;;8.50;99.30;;;;;;5031559;28;20026;-49
2021/11/23 10:00:37;;;;;;;5.20;3.30;;;8.50;99.30;;;;;;5032013;28;20032;-49
2021/11/23 10:03:16;;;;;;;7.57;3.15;;;8.50;99.40;;;;;;5015522;28;20064;-50
2021/11/23 10:05:43;;;;;;;5.43;3.40;;;8.50;99.70;;;;;;5010714;28;20105;-50
2021/11/23 10:08:16;;;;;;;5.28;3.35;;;8.50;99.00;;;;;;5011739;28;20157;-50
2021/11/23 10:10:47;;;;;;;6.10;3.40;;;8.40;98.70;;;;;;5011842;28;20104;-49
2021/11/23 10:13:15;;;;;;;5.28;3.35;;;8.40;98.90;;;;;;5011895;28;20537;-50
2021/11/23 10:15:45;;;;;;;6.40;3.15;;;8.40;98.60;;;;;;5011338;28;20033;-50
2021/11/23 10:18:12;;;;;;;4.10;2.97;;;8.40;98.60;;;;;;5023834;28;20034;-50
2021/11/23 10:20:44;;;;;;;9.02;3.50;;;8.40;98.50;;;;;;5030760;28;20084;-50
2021/11/23 10:23:12;;;;;;;11.70;3.83;;;8.40;98.50;;;;;;5012507;28;20076;-50
2021/11/23 10:25:38;;;;;;;3.80;2.70;;;8.40;98.50;;;;;;5014441;28;20423;-50
2021/11/23 10:28:03;;;;;;;4.55;3.35;;;8.40;98.60;;;;;;5031236;28;20030;-50
2021/11/23 10:30:29;;;;;;;11.00;3.42;;;8.40;98.50;;;;;;5022595;28;20022;-50
2021/11/23 10:32:55;;;;;;;5.35;3.20;;;8.40;98.40;;;;;;5023306;28;20361;-50
2021/11/23 10:35:24;;;;;;;8.80;3.53;;;8.50;98.70;;;;;;5030581;28;20036;-50
2021/11/23 10:37:50;;;;;;;6.32;3.63;;;8.50;98.60;;;;;;5031030;28;20029;-50
2021/11/23 10:40:25;;;;;;;7.32;3.78;;;8.50;98.50;;;;;;5031043;28;20112;-50
2021/11/23 10:42:53;;;;;;;7.05;3.58;;;8.50;98.60;;;;;;5031220;28;20099;-50
2021/11/23 10:45:20;;;;;;;4.85;2.92;;;8.50;98.80;;;;;;5030200;28;20616;-50
2021/11/23 10:47:46;;;;;;;5.97;3.60;;;8.50;98.80;;;;;;5026654;28;20037;-50
2021/11/23 10:50:14;;;;;;;5.82;3.83;;;8.50;98.60;;;;;;5030874;28;20052;-50
2021/11/23 10:52:45;;;;;;;6.90;3.70;;;8.50;98.60;;;;;;5031039;28;20026;-50
2021/11/23 10:55:17;;;;;;;4.63;3.47;;;8.50;98.60;;;;;;5030452;28;20030;-50
2021/11/23 10:57:43;;;;;;;6.07;3.35;;;8.50;98.00;;;;;;5030726;28;20033;-51
2021/11/23 11:00:11;;;;;;;5.07;3.70;;;8.50;98.50;;;;;;5030856;28;20420;-50
2021/11/23 11:02:38;;;;;;;4.85;3.25;;;8.50;98.60;;;;;;5029399;28;20116;-50
2021/11/23 11:05:14;;;;;;;4.28;3.22;;;8.60;99.10;;;;;;5030042;28;20057;-50
2021/11/23 11:07:39;;;;;;;5.28;3.60;;;8.60;99.10;;;;;;5031071;28;20641;-50
2021/11/23 11:10:07;;;;;;;5.72;3.10;;;8.60;99.20;;;;;;5031069;28;20112;-50
2021/11/23 11:12:33;;;;;;;5.95;3.63;;;8.60;98.70;;;;;;5030652;28;20056;-50
2021/11/23 11:15:00;;;;;;;8.02;3.40;;;8.60;98.50;;;;;;5029784;28;20024;-50
2021/11/23 11:17:27;;;;;;;6.13;3.83;;;8.60;98.50;;;;;;5029511;28;20041;-50
2021/11/23 11:19:55;;;;;;;10.32;4.35;;;8.60;98.40;;;;;;5031196;28;20409;-50
2021/11/23 11:22:23;;;;;;;8.38;3.78;;;8.60;98.70;;;;;;5029640;28;20108;-50
2021/11/23 11:25:07;;;;;;;8.18;4.22;;;8.60;98.70;;;;;;5030792;28;20036;-50
2021/11/23 11:27:36;;;;;;;3.88;2.65;;;8.60;98.60;;;;;;5030219;28;20346;-50
2021/11/23 11:30:31;;;;;;;6.72;3.92;;;8.60;98.90;;;;;;5030663;28;20028;-49
2021/11/23 11:33:06;;;;;;;8.85;4.20;;;8.60;98.40;;;;;;5033021;28;20496;-50
2021/11/23 11:35:39;;;;;;;6.00;3.80;;;8.60;98.40;;;;;;5034157;28;20063;-49
2021/11/23 11:38:24;;;;;;;7.72;3.67;;;8.60;98.70;;;;;;5034411;28;20364;-50
2021/11/23 11:40:51;;;;;;;4.63;3.25;;;8.60;98.30;;;;;;5033768;28;20028;-50
2021/11/23 11:43:16;;;;;;;6.30;3.50;;;8.60;98.80;;;;;;5034241;28;20037;-50
2021/11/23 11:45:51;;;;;;;7.22;4.25;;;8.70;98.90;;;;;;5033939;28;20017;-50
2021/11/23 11:48:43;;;;;;;6.75;4.03;;;8.60;98.20;;;;;;5023289;28;20133;-50
2021/11/23 11:51:26;;;;;;;7.70;4.10;;;8.60;98.40;;;;;;5014230;28;20104;-50
2021/11/23 11:53:52;;;;;;;7.65;3.92;;;8.60;98.40;;;;;;5014402;28;20356;-50
2021/11/23 11:56:39;;;;;;;8.18;3.97;;;8.70;98.50;;;;;;5013359;28;20025;-50
2021/11/23 11:59:24;;;;;;;7.00;3.95;;;8.70;98.60;;;;;;5014239;28;20034;-50
2021/11/23 12:01:54;;;;;;;9.25;4.25;;;8.70;98.70;;;;;;5014582;28;20037;-49
2021/11/23 12:04:22;;;;;;;5.65;3.55;;;8.60;98.20;;;;;;5030857;28;20041;-50
2021/11/23 12:06:54;;;;;;;6.47;4.18;;;8.70;98.40;;;;;;5032713;28;20099;-50
2021/11/23 12:09:42;;;;;;;12.57;5.03;;;8.70;98.60;;;;;;5033674;28;20464;-50
2021/11/23 12:12:11;;;;;;;6.57;4.68;;;8.70;98.60;;;;;;5033209;28;20025;-50
2021/11/23 12:14:50;;;;;;;6.35;4.15;;;8.70;99.10;;;;;;5033955;28;20109;-50
2021/11/23 12:17:39;;;;;;;4.90;3.67;;;8.70;99.10;;;;;;5033064;28;20021;-50
2021/11/23 12:20:18;;;;;;;9.25;4.05;;;8.70;99.20;;;;;;5013968;28;20095;-50
2021/11/23 12:22:46;;;;;;;7.87;4.03;;;8.80;99.60;;;;;;5013999;28;20221;-50
2021/11/23 12:25:18;;;;;;;8.43;4.05;;;8.80;99.80;;;;;;5012991;28;20272;-50
2021/11/23 12:27:46;;;;;;;7.75;3.90;;;8.80;99.60;;;;;;5013583;28;20472;-50
2021/11/23 12:30:14;;;;;;;4.78;3.47;;;8.90;99.80;;;;;;5013419;28;20026;-50
2021/11/23 12:32:42;;;;;;;5.80;3.80;;;8.90;99.90;;;;;;5025723;28;20070;-50
2021/11/23 12:35:10;;;;;;;7.38;3.65;;;8.90;99.90;;;;;;5032856;28;20349;-50
2021/11/23 12:37:45;;;;;;;9.45;5.07;;;8.90;99.90;;;;;;5034027;28;20030;-50
2021/11/23 12:40:21;;;;;;;9.18;4.72;;;8.90;99.80;;;;;;5033032;28;20025;-50
2021/11/23 12:42:55;;;;;;;7.53;4.70;;;8.90;99.90;;;;;;5032773;28;20033;-50
2021/11/23 12:45:22;;;;;;;7.55;4.15;;;8.90;99.90;;;;;;5032531;28;20342;-50
2021/11/23 12:47:50;;;;;;;7.53;4.43;;;8.90;99.90;;;;;;5031110;28;20037;-50
2021/11/23 12:50:17;;;;;;;8.55;4.85;;;8.90;99.90;;;;;;5013122;28;20026;-49
2021/11/23 12:52:44;;;;;;;7.80;4.00;;;8.90;99.80;;;;;;5013569;28;20452;-50
2021/11/23 12:55:11;;;;;;;8.57;4.03;;;9.00;99.90;;;;;;5012305;28;20072;-50
2021/11/23 12:57:38;;;;;;;6.22;3.88;;;8.90;99.60;;;;;;5012754;28;20030;-50